createdAt,value
2023-02-14T04:41:17.734Z,4.15
2023-02-14T04:44:21.270Z,6.43
2023-02-14T04:47:23.864Z,7.68
2023-02-14T04:50:27.129Z,7.57
2023-02-14T04:53:29.936Z,8.50
2023-02-14T04:56:33.233Z,7.37
2023-02-14T04:59:35.850Z,6.28
2023-02-14T05:02:39.067Z,7.82
2023-02-14T05:05:41.748Z,7.07
2023-02-14T05:08:45.245Z,6.32
2023-02-14T05:11:48.340Z,7.80
2023-02-14T05:14:51.410Z,8.13
2023-02-14T05:17:54.146Z,11.73
2023-02-14T05:20:57.539Z,8.20
2023-02-14T05:24:01.210Z,7.53
2023-02-14T05:27:04.256Z,7.00
2023-02-14T05:30:07.798Z,8.85
2023-02-14T05:33:11.053Z,10.25
2023-02-14T05:36:13.742Z,10.75
2023-02-14T05:39:16.810Z,6.93
2023-02-14T05:42:19.524Z,12.93
2023-02-14T05:45:23.119Z,11.50
2023-02-14T05:48:25.870Z,9.00
2023-02-14T05:51:29.232Z,8.23
2023-02-14T05:54:32.163Z,14.07
2023-02-14T05:57:35.598Z,16.62
2023-02-14T06:03:46.078Z,7.62
2023-02-14T06:06:48.706Z,7.97
2023-02-14T06:09:51.579Z,12.90
2023-02-14T06:12:54.656Z,6.47
2023-02-14T06:15:57.670Z,8.57
2023-02-14T06:19:00.396Z,8.65
2023-02-14T06:22:03.819Z,10.30
2023-02-14T06:28:09.411Z,7.90
2023-02-14T06:31:17.603Z,9.77
2023-02-14T06:34:20.622Z,6.32
2023-02-14T06:37:23.471Z,5.57
2023-02-14T06:43:28.848Z,6.22
2023-02-14T06:46:31.961Z,6.80
2023-02-14T06:49:34.937Z,10.30
2023-02-14T06:55:42.955Z,15.60
2023-02-14T06:58:46.871Z,9.82
2023-02-14T07:01:49.713Z,8.50
2023-02-14T07:07:55.229Z,9.68
2023-02-14T07:17:04.781Z,7.47
2023-02-14T07:20:09.427Z,6.82
2023-02-14T07:23:12.427Z,9.38
2023-02-14T07:26:21.148Z,7.55
2023-02-14T07:29:24.739Z,10.57
2023-02-14T07:32:27.790Z,11.07
2023-02-14T07:35:30.911Z,11.75
2023-02-14T07:38:34.374Z,9.35
2023-02-14T07:41:39.442Z,9.57
2023-02-14T07:44:46.560Z,10.38
2023-02-14T07:47:51.898Z,10.25
2023-02-14T07:50:58.120Z,10.93
2023-02-14T07:54:01.433Z,11.85
2023-02-14T07:57:04.857Z,9.43
2023-02-14T08:00:08.716Z,9.32
2023-02-14T08:03:15.388Z,9.18
2023-02-14T08:06:19.817Z,10.63
2023-02-14T08:09:25.541Z,12.27
2023-02-14T08:12:47.097Z,8.02
2023-02-14T08:16:05.722Z,7.45
2023-02-14T08:19:08.947Z,12.18
2023-02-14T08:22:11.640Z,10.75
2023-02-14T08:25:14.531Z,10.38
2023-02-14T08:28:18.396Z,7.93
2023-02-14T08:31:35.226Z,10.32
2023-02-14T08:34:38.907Z,8.45
2023-02-14T08:40:44.277Z,7.87
2023-02-14T08:43:47.222Z,7.25
2023-02-14T08:46:50.260Z,8.80
2023-02-14T08:49:53.248Z,7.65
2023-02-14T08:52:56.984Z,8.02
2023-02-14T08:56:20.225Z,9.75
2023-02-14T08:59:23.016Z,9.15
2023-02-14T09:05:28.668Z,8.55
2023-02-14T09:08:31.782Z,7.65
2023-02-14T09:11:34.902Z,13.32
2023-02-14T09:14:44.114Z,10.05
2023-02-14T09:17:47.692Z,12.52
2023-02-14T09:20:51.503Z,10.95
2023-02-14T09:23:55.001Z,9.82
2023-02-14T09:26:58.409Z,9.85
2023-02-14T09:30:01.507Z,12.25
2023-02-14T09:36:11.434Z,7.85
2023-02-14T09:39:16.483Z,7.80
2023-02-14T09:42:41.575Z,8.25
2023-02-14T09:45:54.828Z,7.68
2023-02-14T09:48:58.440Z,7.03
2023-02-14T09:52:03.797Z,8.98
2023-02-14T09:55:15.620Z,7.90
2023-02-14T09:58:36.112Z,6.72
2023-02-14T10:01:46.106Z,6.93
2023-02-14T10:05:00.794Z,7.03
2023-02-14T10:08:37.997Z,5.07
2023-02-14T10:11:45.791Z,8.23
2023-02-14T10:14:50.243Z,6.20
2023-02-14T10:18:02.820Z,6.68
2023-02-14T10:21:08.034Z,7.37
2023-02-14T10:24:37.128Z,5.55
2023-02-14T10:27:45.144Z,4.35
2023-02-14T10:31:14.179Z,6.93
2023-02-14T10:34:35.607Z,5.43
2023-02-14T10:37:48.269Z,7.93
2023-02-14T10:41:21.830Z,9.85
2023-02-14T10:44:34.302Z,8.77
2023-02-14T10:47:58.841Z,9.00
2023-02-14T10:51:11.281Z,6.35
2023-02-14T10:54:23.028Z,7.18
2023-02-14T10:57:34.444Z,6.20
2023-02-14T11:00:51.032Z,6.75
2023-02-14T11:04:04.336Z,6.57
2023-02-14T11:07:19.866Z,8.32
2023-02-14T11:10:27.095Z,7.07
2023-02-14T11:13:38.694Z,7.43
2023-02-14T11:16:42.193Z,7.53
2023-02-14T11:19:58.013Z,5.37
2023-02-14T11:23:00.925Z,4.90
2023-02-14T11:26:08.901Z,7.50
2023-02-14T11:29:16.354Z,5.20
2023-02-14T11:32:25.281Z,6.75
2023-02-14T11:35:34.639Z,5.87
2023-02-14T11:38:40.056Z,5.55
2023-02-14T11:41:52.364Z,6.55
2023-02-14T11:44:58.581Z,7.72
2023-02-14T11:48:39.474Z,5.60
2023-02-14T11:51:45.463Z,5.68
2023-02-14T11:54:51.860Z,5.35
2023-02-14T11:57:55.803Z,5.82
2023-02-14T12:01:00.355Z,7.00
2023-02-14T12:04:15.326Z,7.03
2023-02-14T12:07:21.697Z,4.70
2023-02-14T12:10:35.379Z,4.53
2023-02-14T12:13:38.395Z,6.25
2023-02-14T12:16:51.327Z,6.22
2023-02-14T12:20:03.525Z,6.53
2023-02-14T12:23:23.571Z,6.93
2023-02-14T12:26:35.174Z,7.30
2023-02-14T12:29:56.347Z,5.47
2023-02-14T12:33:00.313Z,4.28
2023-02-14T12:36:10.357Z,5.28
2023-02-14T12:39:36.505Z,4.37
2023-02-14T12:43:18.390Z,5.37
2023-02-14T12:46:45.226Z,4.70
2023-02-14T12:50:03.430Z,5.10
2023-02-14T12:53:15.413Z,4.50
2023-02-14T12:56:24.670Z,5.43
2023-02-14T12:59:46.193Z,8.18
2023-02-14T13:02:49.445Z,4.65
2023-02-14T13:06:04.264Z,4.35
2023-02-14T13:09:38.187Z,5.45
2023-02-14T13:13:00.428Z,4.28
2023-02-14T13:16:21.347Z,2.67
2023-02-14T13:19:45.323Z,6.70
2023-02-14T13:22:49.262Z,3.85
2023-02-14T13:26:07.595Z,4.45
2023-02-14T13:29:16.535Z,5.00
2023-02-14T13:32:25.890Z,6.12
2023-02-14T13:35:31.283Z,5.80
2023-02-14T13:38:40.749Z,5.12
2023-02-14T13:41:44.416Z,4.25
2023-02-14T13:44:50.065Z,7.28
2023-02-14T13:48:09.074Z,7.32
2023-02-14T13:51:11.769Z,7.32
2023-02-14T13:54:45.170Z,5.25
2023-02-14T13:58:02.748Z,5.70
2023-02-14T14:01:27.248Z,5.20
2023-02-14T14:04:31.901Z,10.00
2023-02-14T14:07:34.717Z,16.40
2023-02-14T14:10:47.190Z,13.75
2023-02-14T14:13:58.027Z,17.58
2023-02-14T14:17:01.269Z,13.05
2023-02-14T14:20:27.750Z,13.32
2023-02-14T14:23:35.149Z,8.52
2023-02-14T14:26:49.247Z,11.05
2023-02-14T14:30:07.384Z,9.13
2023-02-14T14:33:17.468Z,10.23
2023-02-14T14:36:23.868Z,17.00
2023-02-14T14:39:32.366Z,16.45
2023-02-14T14:42:40.728Z,20.40
2023-02-14T14:45:46.559Z,28.45
2023-02-14T14:48:54.474Z,30.48
2023-02-14T14:51:57.577Z,27.02
2023-02-14T14:55:02.394Z,30.80
2023-02-14T14:58:10.819Z,17.60
2023-02-14T15:01:47.391Z,19.73
2023-02-14T15:04:50.234Z,22.77
2023-02-14T15:07:53.404Z,13.43
2023-02-14T15:11:41.069Z,10.32
2023-02-14T15:14:51.336Z,10.65
2023-02-14T15:17:56.045Z,9.98
2023-02-14T15:20:59.816Z,9.73
2023-02-14T15:24:03.254Z,10.88
2023-02-14T15:27:16.996Z,11.20
2023-02-14T15:30:26.055Z,8.57
2023-02-14T15:33:31.681Z,8.63
2023-02-14T15:36:35.417Z,9.57
2023-02-14T15:39:49.239Z,8.63
2023-02-14T15:42:59.077Z,9.95
2023-02-14T15:46:28.226Z,11.93
2023-02-14T15:49:37.537Z,9.95
2023-02-14T15:52:41.413Z,10.60
2023-02-14T15:55:44.604Z,6.90
2023-02-14T15:58:49.632Z,7.62
2023-02-14T16:02:00.130Z,8.18
2023-02-14T16:05:24.885Z,8.20
2023-02-14T16:08:30.336Z,6.75
2023-02-14T16:11:38.255Z,5.72
2023-02-14T16:14:45.733Z,6.15
2023-02-14T16:17:49.351Z,8.90
2023-02-14T16:20:51.991Z,13.45
2023-02-14T16:24:08.122Z,21.77
2023-02-14T16:27:13.328Z,18.00
2023-02-14T16:30:20.080Z,28.80
2023-02-14T16:33:28.865Z,20.48
2023-02-14T16:36:34.092Z,25.77
2023-02-14T16:39:39.380Z,26.20
2023-02-14T16:42:43.523Z,31.67
2023-02-14T16:45:46.699Z,24.20
2023-02-14T16:48:52.476Z,21.60
